createdAt,value
2022-10-25T00:01:30.030Z,6.60
2022-10-25T00:03:57.237Z,6.10
2022-10-25T00:06:24.222Z,6.30
2022-10-25T00:08:51.618Z,6.83
2022-10-25T00:11:22.623Z,7.30
2022-10-25T00:13:53.834Z,6.60
2022-10-25T00:16:24.040Z,7.57
2022-10-25T00:18:51.027Z,8.33
2022-10-25T00:21:18.707Z,8.90
2022-10-25T00:23:46.353Z,11.00
2022-10-25T00:26:13.754Z,11.13
2022-10-25T00:28:41.119Z,10.83
2022-10-25T00:31:11.026Z,11.00
2022-10-25T00:33:38.766Z,11.93
2022-10-25T00:36:09.835Z,12.20
2022-10-25T00:38:39.341Z,11.77
2022-10-25T00:41:07.037Z,11.30
2022-10-25T00:43:37.461Z,11.77
2022-10-25T00:46:14.378Z,12.20
2022-10-25T00:48:44.685Z,13.37
2022-10-25T00:51:11.660Z,12.40
2022-10-25T00:53:38.788Z,12.10
2022-10-25T00:56:16.946Z,12.97
2022-10-25T00:58:49.214Z,11.97
2022-10-25T01:01:16.354Z,11.70
2022-10-25T01:03:45.518Z,12.27
2022-10-25T01:06:23.270Z,11.63
2022-10-25T01:08:52.663Z,11.10
2022-10-25T01:11:20.578Z,10.80
2022-10-25T01:13:49.017Z,10.00
2022-10-25T01:16:34.544Z,10.93
2022-10-25T01:19:22.618Z,11.07
2022-10-25T01:21:52.938Z,10.47
2022-10-25T01:24:34.927Z,11.07
2022-10-25T01:27:20.526Z,11.03
2022-10-25T01:30:15.857Z,11.23
2022-10-25T01:32:55.352Z,10.47
2022-10-25T01:35:32.592Z,9.80
2022-10-25T01:38:07.209Z,9.83
2022-10-25T01:40:58.774Z,9.57
2022-10-25T01:43:56.758Z,9.63
2022-10-25T01:46:36.561Z,10.23
2022-10-25T01:49:12.248Z,9.07
2022-10-25T01:51:41.655Z,10.27
2022-10-25T01:54:25.092Z,9.77
2022-10-25T01:57:06.208Z,10.60
2022-10-25T02:00:11.202Z,10.23
2022-10-25T02:02:43.592Z,10.17
2022-10-25T02:05:31.657Z,10.67
2022-10-25T02:08:24.569Z,9.90
2022-10-25T02:11:06.637Z,10.37
2022-10-25T02:14:01.238Z,9.70
2022-10-25T02:16:34.290Z,9.90
2022-10-25T02:19:06.707Z,10.10
2022-10-25T02:21:35.916Z,9.70
2022-10-25T02:24:09.265Z,10.00
2022-10-25T02:26:36.748Z,9.33
2022-10-25T02:29:05.041Z,10.40
2022-10-25T02:31:35.553Z,10.50
2022-10-25T02:34:05.714Z,10.03
2022-10-25T02:36:32.630Z,10.90
2022-10-25T02:39:00.665Z,10.67
2022-10-25T02:41:27.466Z,9.73
2022-10-25T02:43:54.431Z,10.50
2022-10-25T02:46:23.288Z,10.93
2022-10-25T02:48:51.122Z,9.90
2022-10-25T02:51:18.674Z,10.17
2022-10-25T02:53:45.486Z,9.87
2022-10-25T02:56:15.481Z,10.03
2022-10-25T02:58:43.837Z,9.97
2022-10-25T03:01:11.622Z,9.57
2022-10-25T03:03:38.778Z,9.33
2022-10-25T03:06:06.086Z,11.03
2022-10-25T03:08:33.119Z,10.00
2022-10-25T03:11:00.517Z,9.43
2022-10-25T03:13:27.230Z,9.53
2022-10-25T03:15:54.217Z,8.50
2022-10-25T03:18:22.390Z,9.37
2022-10-25T03:20:49.593Z,9.07
2022-10-25T03:23:17.159Z,9.00
2022-10-25T03:25:44.091Z,9.23
2022-10-25T03:28:11.017Z,9.32
2022-10-25T03:30:45.869Z,10.10
2022-10-25T03:33:12.604Z,9.30
2022-10-25T03:35:40.244Z,8.10
2022-10-25T03:38:11.174Z,8.17
2022-10-25T03:40:37.914Z,8.90
2022-10-25T03:43:04.582Z,7.93
2022-10-25T03:45:31.396Z,7.87
2022-10-25T03:47:58.068Z,7.77
2022-10-25T03:50:24.951Z,8.40
2022-10-25T03:52:51.638Z,8.50
2022-10-25T03:55:18.509Z,7.63
2022-10-25T03:57:45.479Z,7.43
2022-10-25T04:00:13.410Z,7.87
2022-10-25T04:02:40.442Z,7.60
2022-10-25T04:05:10.064Z,7.57
2022-10-25T04:07:37.187Z,7.53
2022-10-25T04:10:04.986Z,7.57
2022-10-25T04:12:31.781Z,8.60
2022-10-25T04:15:04.218Z,7.43
2022-10-25T04:17:31.085Z,7.70
2022-10-25T04:19:58.075Z,7.83
2022-10-25T04:22:25.002Z,8.07
2022-10-25T04:24:51.875Z,7.23
2022-10-25T04:27:18.688Z,8.23
2022-10-25T04:29:45.768Z,7.27
2022-10-25T04:32:12.777Z,8.30
2022-10-25T04:34:39.776Z,7.30
2022-10-25T04:37:06.759Z,7.40
2022-10-25T04:39:33.451Z,7.90
2022-10-25T04:42:01.306Z,8.43
2022-10-25T04:44:28.054Z,7.17
2022-10-25T04:46:54.749Z,7.30
2022-10-25T04:49:21.564Z,8.00
2022-10-25T04:54:18.233Z,7.13
2022-10-25T04:56:44.917Z,7.83
2022-10-25T04:59:12.621Z,7.33
2022-10-25T05:01:39.513Z,7.20
2022-10-25T05:04:06.320Z,8.90
2022-10-25T05:06:33.102Z,7.97
2022-10-25T05:08:59.801Z,7.40
2022-10-25T05:11:26.795Z,7.60
2022-10-25T05:13:53.556Z,8.57
2022-10-25T05:16:23.598Z,8.00
2022-10-25T05:18:54.536Z,8.70
2022-10-25T05:24:02.243Z,8.03
2022-10-25T05:26:29.783Z,9.37
2022-10-25T05:28:57.044Z,9.00
2022-10-25T05:31:29.615Z,7.87
2022-10-25T05:33:59.026Z,8.90
2022-10-25T05:36:26.253Z,8.03
2022-10-25T05:38:52.945Z,7.87
2022-10-25T05:41:19.893Z,8.77
2022-10-25T05:43:47.402Z,8.30
2022-10-25T05:46:16.945Z,8.43
2022-10-25T05:48:48.476Z,9.67
2022-10-25T05:51:33.172Z,9.60
2022-10-25T05:54:06.991Z,9.60
2022-10-25T05:56:35.337Z,10.43
2022-10-25T05:59:09.079Z,10.03
2022-10-25T06:01:41.200Z,12.15
2022-10-25T06:04:08.621Z,11.67
2022-10-25T06:06:36.877Z,11.07
2022-10-25T06:09:05.673Z,11.90
2022-10-25T06:11:34.390Z,11.83
2022-10-25T06:14:01.461Z,11.77
2022-10-25T06:16:28.336Z,13.13
2022-10-25T06:18:55.161Z,12.33
2022-10-25T06:21:30.913Z,11.27
2022-10-25T06:23:59.420Z,11.53
2022-10-25T06:26:28.192Z,13.30
2022-10-25T06:29:00.992Z,12.30
2022-10-25T06:31:28.793Z,12.53
2022-10-25T06:33:55.565Z,12.23
2022-10-25T06:36:24.010Z,11.93
2022-10-25T06:38:51.209Z,12.00
2022-10-25T06:41:20.424Z,12.07
2022-10-25T06:43:47.872Z,12.07
2022-10-25T06:46:33.194Z,12.90
2022-10-25T06:49:01.625Z,10.97
2022-10-25T06:51:29.714Z,11.53
2022-10-25T06:53:57.988Z,12.13
2022-10-25T06:56:26.167Z,12.00
2022-10-25T06:58:53.899Z,12.40
2022-10-25T07:01:22.011Z,11.53
2022-10-25T07:03:50.806Z,11.53
2022-10-25T07:06:23.178Z,11.77
2022-10-25T07:08:56.892Z,12.00
2022-10-25T07:11:25.713Z,11.17
2022-10-25T07:13:52.791Z,11.70
2022-10-25T07:16:21.324Z,10.93
2022-10-25T07:18:48.714Z,11.90
2022-10-25T07:21:20.153Z,11.77
2022-10-25T07:23:47.408Z,11.80
2022-10-25T07:26:21.623Z,10.87
2022-10-25T07:28:49.950Z,10.63
2022-10-25T07:31:20.077Z,11.57
2022-10-25T07:33:47.435Z,10.60
2022-10-25T07:36:14.423Z,10.90
2022-10-25T07:38:41.201Z,11.33
2022-10-25T07:41:08.751Z,10.40
2022-10-25T07:43:35.734Z,10.90
2022-10-25T07:46:02.792Z,10.93
2022-10-25T07:48:29.540Z,10.87
2022-10-25T07:50:59.872Z,11.40
2022-10-25T07:53:26.838Z,11.02
2022-10-25T07:55:55.315Z,11.10
2022-10-25T07:58:22.473Z,9.52
2022-10-25T08:00:49.518Z,9.48
2022-10-25T08:03:17.871Z,9.38
2022-10-25T08:05:46.630Z,9.95
2022-10-25T08:08:14.541Z,9.88
2022-10-25T08:10:44.821Z,9.98
2022-10-25T08:13:11.858Z,9.35
2022-10-25T08:15:41.040Z,9.23
2022-10-25T08:18:09.798Z,9.65
2022-10-25T08:21:00.499Z,8.27
2022-10-25T08:23:25.352Z,9.02
2022-10-25T08:25:52.519Z,8.55
2022-10-25T08:28:20.104Z,9.15
2022-10-25T08:30:46.838Z,8.30
2022-10-25T08:33:14.260Z,8.70
2022-10-25T08:35:41.119Z,7.97
2022-10-25T08:38:07.859Z,8.15
2022-10-25T08:40:48.762Z,7.75
2022-10-25T08:43:27.713Z,7.85
2022-10-25T08:46:03.408Z,7.95
2022-10-25T08:48:54.211Z,7.88
2022-10-25T08:51:36.066Z,8.05
2022-10-25T08:54:11.691Z,7.20
2022-10-25T08:56:42.707Z,8.43
2022-10-25T08:59:28.723Z,7.72
2022-10-25T09:01:59.581Z,7.50
2022-10-25T09:04:27.123Z,7.00
2022-10-25T09:07:05.587Z,7.53
2022-10-25T09:09:45.414Z,6.82
2022-10-25T09:12:17.843Z,6.28
2022-10-25T09:14:53.933Z,6.65
2022-10-25T09:17:23.287Z,6.55
2022-10-25T09:20:05.400Z,6.60
2022-10-25T09:22:49.402Z,6.65
2022-10-25T09:25:40.393Z,5.88
2022-10-25T09:28:14.975Z,6.40
2022-10-25T09:30:44.052Z,8.43
2022-10-25T09:33:13.808Z,7.50
2022-10-25T09:35:53.942Z,7.03
2022-10-25T09:38:46.597Z,7.47
2022-10-25T09:41:22.826Z,7.07
2022-10-25T09:44:01.032Z,7.45
2022-10-25T09:46:35.131Z,7.07
2022-10-25T09:49:11.031Z,7.13
2022-10-25T09:52:17.082Z,7.22
2022-10-25T09:55:13.963Z,6.82
2022-10-25T09:57:41.906Z,8.07
2022-10-25T10:00:14.401Z,7.05
2022-10-25T10:02:41.783Z,7.82
2022-10-25T10:05:20.712Z,8.23
2022-10-25T10:07:49.559Z,8.10
2022-10-25T10:10:24.148Z,7.85
2022-10-25T10:15:45.083Z,6.03
2022-10-25T10:18:22.578Z,6.75
2022-10-25T10:21:12.274Z,6.53
2022-10-25T10:23:42.401Z,6.05
2022-10-25T10:26:21.004Z,6.85
2022-10-25T10:28:54.661Z,7.63
2022-10-25T10:31:22.888Z,7.47
2022-10-25T10:33:51.683Z,6.28
2022-10-25T10:36:27.607Z,6.47
2022-10-25T10:39:22.326Z,7.18
2022-10-25T10:42:03.500Z,7.90
2022-10-25T10:44:34.559Z,8.02
2022-10-25T10:47:10.035Z,7.55
2022-10-25T10:49:41.250Z,7.93
2022-10-25T10:52:33.617Z,7.30
2022-10-25T10:55:01.191Z,6.85
2022-10-25T10:57:34.017Z,7.10
2022-10-25T11:00:02.578Z,8.05
2022-10-25T11:02:42.542Z,7.13
2022-10-25T11:05:35.216Z,7.13
2022-10-25T11:08:18.240Z,7.22
2022-10-25T11:10:45.169Z,7.53
2022-10-25T11:13:25.873Z,8.20
2022-10-25T11:16:09.002Z,7.10
2022-10-25T11:18:42.452Z,6.43
2022-10-25T11:21:34.782Z,7.05
2022-10-25T11:24:13.710Z,6.30
2022-10-25T11:26:43.488Z,6.32
2022-10-25T11:29:44.811Z,6.03
2022-10-25T11:32:51.283Z,6.00
2022-10-25T11:35:40.513Z,5.63
2022-10-25T11:38:20.253Z,6.30
2022-10-25T11:41:06.540Z,5.53
2022-10-25T11:44:02.720Z,5.53
2022-10-25T11:46:48.479Z,5.80
2022-10-25T11:49:37.393Z,6.00
2022-10-25T11:52:07.219Z,5.75
2022-10-25T11:54:55.914Z,6.22
2022-10-25T11:57:22.599Z,5.82
2022-10-25T12:00:01.667Z,6.70
2022-10-25T12:02:54.791Z,5.72
2022-10-25T12:05:56.779Z,5.20
2022-10-25T12:08:38.662Z,5.38
2022-10-25T12:11:12.772Z,6.82
2022-10-25T12:13:48.787Z,5.97
2022-10-25T12:16:19.122Z,6.57
2022-10-25T12:18:52.456Z,6.60
2022-10-25T12:21:23.929Z,6.25
2022-10-25T12:23:53.794Z,6.50
2022-10-25T12:26:30.569Z,5.60
2022-10-25T12:29:03.613Z,5.65
2022-10-25T12:31:40.506Z,6.13
2022-10-25T12:34:22.404Z,6.40
2022-10-25T12:36:56.575Z,5.50
2022-10-25T12:39:36.154Z,6.85
2022-10-25T12:42:07.961Z,7.22
2022-10-25T12:45:02.747Z,6.68
2022-10-25T12:47:47.657Z,6.07
2022-10-25T12:50:26.199Z,6.18
2022-10-25T12:53:49.399Z,5.88
2022-10-25T12:56:40.369Z,5.30
2022-10-25T12:59:38.227Z,5.15
2022-10-25T13:02:33.956Z,5.00
2022-10-25T13:05:30.421Z,5.65
2022-10-25T13:08:04.689Z,5.28
2022-10-25T13:10:57.628Z,5.65
2022-10-25T13:13:28.283Z,5.63
2022-10-25T13:15:59.001Z,5.82
2022-10-25T13:18:43.767Z,4.93
2022-10-25T13:21:16.872Z,5.80
2022-10-25T13:23:43.718Z,5.57
2022-10-25T13:26:16.823Z,5.30
2022-10-25T13:28:44.879Z,5.47
2022-10-25T13:31:33.845Z,5.35
2022-10-25T13:34:28.778Z,5.30
2022-10-25T13:37:02.006Z,5.20
2022-10-25T13:39:33.382Z,4.93
2022-10-25T13:42:15.164Z,4.78
2022-10-25T13:45:03.353Z,4.63
2022-10-25T13:47:38.525Z,4.43
2022-10-25T13:50:32.382Z,4.60
2022-10-25T13:53:03.900Z,4.65
2022-10-25T13:55:37.475Z,4.30
2022-10-25T13:58:41.730Z,4.65
2022-10-25T14:01:17.936Z,4.53
2022-10-25T14:04:33.880Z,4.32
2022-10-25T14:07:38.230Z,5.07
2022-10-25T14:10:09.290Z,5.30
2022-10-25T14:12:36.770Z,5.05
2022-10-25T14:15:07.898Z,4.55
2022-10-25T14:17:43.181Z,4.57
2022-10-25T14:20:32.404Z,4.25
2022-10-25T14:23:04.024Z,4.25
2022-10-25T14:25:36.092Z,4.15
2022-10-25T14:28:17.735Z,3.70
2022-10-25T14:30:55.951Z,3.97
2022-10-25T14:33:26.378Z,4.10
2022-10-25T14:36:06.733Z,3.45
2022-10-25T14:38:51.211Z,3.63
2022-10-25T14:41:22.780Z,3.72
2022-10-25T14:43:49.973Z,3.75
2022-10-25T14:46:19.075Z,4.00
2022-10-25T14:48:53.373Z,4.20
2022-10-25T14:51:41.201Z,3.95
2022-10-25T14:54:27.471Z,3.72
2022-10-25T14:57:08.925Z,4.30
2022-10-25T14:59:44.949Z,3.60
2022-10-25T15:02:40.919Z,3.92
2022-10-25T15:05:14.878Z,4.22
2022-10-25T15:07:49.311Z,3.72
2022-10-25T15:10:43.914Z,3.95
2022-10-25T15:13:34.391Z,4.13
2022-10-25T15:16:38.623Z,4.25
2022-10-25T15:19:09.267Z,4.38
2022-10-25T15:22:05.131Z,4.55
2022-10-25T15:24:49.957Z,4.00
2022-10-25T15:27:40.762Z,4.30
2022-10-25T15:30:59.462Z,4.05
2022-10-25T15:33:29.412Z,4.70
2022-10-25T15:35:57.760Z,4.47
2022-10-25T15:38:48.005Z,4.97
2022-10-25T15:41:20.596Z,4.57
2022-10-25T15:43:49.728Z,4.63
2022-10-25T15:46:38.339Z,4.47
2022-10-25T15:49:09.544Z,5.07
2022-10-25T15:51:42.330Z,5.30
2022-10-25T15:54:24.859Z,4.68
2022-10-25T15:56:52.075Z,4.90
2022-10-25T15:59:19.028Z,5.25
2022-10-25T16:01:51.253Z,4.75
2022-10-25T16:04:19.459Z,5.00
2022-10-25T16:06:47.138Z,4.70
2022-10-25T16:09:14.010Z,5.53
2022-10-25T16:11:46.447Z,5.80
2022-10-25T16:14:23.918Z,5.63
2022-10-25T16:16:51.277Z,5.43
2022-10-25T16:19:19.945Z,6.40
2022-10-25T16:21:49.645Z,8.05
2022-10-25T16:24:19.827Z,7.97
2022-10-25T16:26:49.785Z,6.60
2022-10-25T16:29:19.373Z,5.95
2022-10-25T16:31:49.633Z,5.72
2022-10-25T16:34:18.052Z,5.32
2022-10-25T16:36:48.798Z,6.03
2022-10-25T16:39:16.329Z,5.37
2022-10-25T16:41:47.700Z,5.88
2022-10-25T16:44:18.462Z,5.90
2022-10-25T16:46:47.559Z,5.70
2022-10-25T16:49:15.577Z,5.60
2022-10-25T16:51:44.349Z,5.80
2022-10-25T16:54:13.535Z,5.83
2022-10-25T16:56:44.375Z,6.50
2022-10-25T16:59:11.614Z,6.23
2022-10-25T17:01:44.873Z,5.80
2022-10-25T17:04:14.123Z,5.97
2022-10-25T17:06:43.522Z,6.43
2022-10-25T17:09:11.440Z,6.00
2022-10-25T17:11:42.066Z,6.70
2022-10-25T17:14:12.169Z,6.03
2022-10-25T17:16:44.310Z,6.67
2022-10-25T17:19:13.229Z,6.93
2022-10-25T17:21:41.825Z,6.27
2022-10-25T17:24:09.902Z,6.43
2022-10-25T17:26:37.854Z,6.10
2022-10-25T17:29:06.004Z,6.17
2022-10-25T17:31:34.005Z,6.13
2022-10-25T17:34:01.375Z,6.30
2022-10-25T17:36:32.757Z,5.90
2022-10-25T17:39:05.852Z,5.87
2022-10-25T17:41:32.811Z,5.67
2022-10-25T17:44:00.151Z,6.60
2022-10-25T17:46:34.268Z,7.27
2022-10-25T17:49:03.607Z,7.10
2022-10-25T17:51:33.911Z,7.20
2022-10-25T17:54:00.944Z,6.63
2022-10-25T17:59:04.446Z,7.60
2022-10-25T18:01:37.134Z,7.07
2022-10-25T18:04:04.642Z,7.80
2022-10-25T18:06:32.716Z,7.63
2022-10-25T18:09:03.243Z,6.87
2022-10-25T18:11:31.286Z,7.97
2022-10-25T18:14:00.235Z,7.43
2022-10-25T18:16:30.997Z,8.03
2022-10-25T18:19:02.990Z,8.53
2022-10-25T18:21:32.010Z,9.03
2022-10-25T18:24:01.304Z,8.03
2022-10-25T18:26:28.723Z,9.33
2022-10-25T18:28:59.480Z,7.73
2022-10-25T18:31:27.338Z,8.23
2022-10-25T18:33:59.509Z,9.47
2022-10-25T18:36:30.849Z,8.93
2022-10-25T18:38:58.000Z,8.90
2022-10-25T18:41:31.438Z,8.60
2022-10-25T18:44:03.212Z,8.33
2022-10-25T18:46:33.459Z,8.93
2022-10-25T18:49:00.572Z,9.60
2022-10-25T18:51:30.267Z,9.67
2022-10-25T18:54:00.376Z,9.63
2022-10-25T18:56:33.106Z,9.93
2022-10-25T18:59:00.216Z,10.07
2022-10-25T19:01:32.830Z,9.83
2022-10-25T19:04:02.370Z,10.43
2022-10-25T19:06:29.831Z,10.23
2022-10-25T19:08:56.642Z,10.13
2022-10-25T19:11:23.716Z,11.03
2022-10-25T19:13:55.394Z,10.63
2022-10-25T19:16:23.048Z,10.63
2022-10-25T19:18:50.722Z,12.03
2022-10-25T19:21:18.671Z,11.77
2022-10-25T19:23:47.101Z,11.97
2022-10-25T19:26:19.467Z,11.00
2022-10-25T19:28:47.281Z,11.37
2022-10-25T19:31:16.494Z,13.83
2022-10-25T19:33:47.829Z,12.87
2022-10-25T19:36:15.226Z,13.23
2022-10-25T19:38:42.242Z,11.60
2022-10-25T19:41:12.131Z,11.57
2022-10-25T19:43:38.948Z,12.57
2022-10-25T19:46:09.712Z,12.80
2022-10-25T19:48:36.538Z,13.27
2022-10-25T19:51:15.298Z,12.90
2022-10-25T19:53:42.475Z,13.03
2022-10-25T19:56:17.320Z,13.00
2022-10-25T19:58:44.821Z,12.73
2022-10-25T20:01:14.152Z,12.57
2022-10-25T20:03:44.188Z,12.63
2022-10-25T20:06:18.725Z,13.97
2022-10-25T20:08:48.823Z,14.03
2022-10-25T20:11:16.678Z,14.17
2022-10-25T20:13:43.917Z,14.47
2022-10-25T20:16:11.217Z,14.73
2022-10-25T20:18:42.608Z,12.37
2022-10-25T20:21:13.905Z,14.33
2022-10-25T20:23:43.276Z,14.47
2022-10-25T20:26:17.121Z,14.30
2022-10-25T20:28:44.470Z,14.80
2022-10-25T20:31:13.975Z,14.80
2022-10-25T20:33:43.452Z,14.10
2022-10-25T20:36:12.359Z,13.80
2022-10-25T20:38:40.409Z,13.73
2022-10-25T20:41:16.770Z,13.47
2022-10-25T20:43:47.997Z,12.53
2022-10-25T20:46:15.536Z,13.73
2022-10-25T20:48:46.597Z,13.43
2022-10-25T20:51:15.512Z,12.83
2022-10-25T20:53:44.284Z,12.70
2022-10-25T20:56:12.316Z,14.97
2022-10-25T20:58:43.637Z,14.37
2022-10-25T21:01:10.928Z,16.07
2022-10-25T21:03:46.571Z,14.80
2022-10-25T21:06:15.635Z,13.63
2022-10-25T21:08:42.460Z,14.47
2022-10-25T21:11:12.273Z,14.17
2022-10-25T21:13:39.261Z,13.77
2022-10-25T21:16:14.118Z,14.67
2022-10-25T21:18:42.269Z,14.60
2022-10-25T21:21:15.415Z,14.87
2022-10-25T21:23:42.155Z,14.47
2022-10-25T21:26:10.130Z,13.63
2022-10-25T21:28:41.524Z,13.77
2022-10-25T21:31:13.179Z,13.80
2022-10-25T21:33:49.644Z,14.53
2022-10-25T21:36:27.977Z,14.90
2022-10-25T21:38:54.978Z,14.40
2022-10-25T21:41:30.268Z,14.47
2022-10-25T21:43:58.343Z,14.70
2022-10-25T21:46:26.764Z,15.83
2022-10-25T21:48:56.913Z,18.03
2022-10-25T21:51:24.445Z,15.57
2022-10-25T21:53:55.163Z,16.00
2022-10-25T21:56:31.216Z,15.20
2022-10-25T21:58:59.802Z,14.60
2022-10-25T22:01:29.410Z,14.33
2022-10-25T22:03:58.719Z,14.30
2022-10-25T22:06:29.915Z,15.07
2022-10-25T22:08:57.871Z,15.90
2022-10-25T22:11:27.298Z,15.17
2022-10-25T22:13:59.689Z,13.80
2022-10-25T22:16:27.477Z,14.37
2022-10-25T22:19:07.244Z,15.60
2022-10-25T22:21:40.120Z,15.17
2022-10-25T22:24:08.524Z,16.10
2022-10-25T22:26:35.886Z,13.63
2022-10-25T22:29:03.035Z,13.73
2022-10-25T22:31:30.789Z,15.50
2022-10-25T22:34:00.716Z,14.83
2022-10-25T22:36:34.206Z,14.57
2022-10-25T22:39:02.091Z,14.30
2022-10-25T22:41:29.744Z,14.37
2022-10-25T22:43:57.575Z,15.43
2022-10-25T22:46:32.445Z,15.17
2022-10-25T22:49:06.656Z,15.30
2022-10-25T22:51:34.467Z,14.63
2022-10-25T22:54:01.610Z,14.80
2022-10-25T22:56:30.373Z,14.73
2022-10-25T22:59:02.767Z,14.60
2022-10-25T23:01:36.344Z,16.13
2022-10-25T23:04:06.652Z,15.83
2022-10-25T23:06:38.511Z,14.73
2022-10-25T23:09:10.205Z,15.77
2022-10-25T23:11:38.665Z,15.77
2022-10-25T23:14:07.406Z,14.73
2022-10-25T23:16:34.403Z,14.87
2022-10-25T23:19:01.257Z,15.17
2022-10-25T23:21:31.022Z,14.80
2022-10-25T23:24:00.005Z,15.77
2022-10-25T23:26:30.195Z,14.87
2022-10-25T23:28:57.516Z,17.47
2022-10-25T23:31:25.492Z,15.63
2022-10-25T23:33:54.075Z,15.03
2022-10-25T23:36:23.631Z,16.23
2022-10-25T23:38:51.855Z,15.53
2022-10-25T23:41:20.679Z,14.40
2022-10-25T23:43:47.617Z,15.63
2022-10-25T23:46:14.563Z,16.00
2022-10-25T23:48:41.385Z,16.87
2022-10-25T23:51:13.450Z,17.47
2022-10-25T23:53:40.706Z,18.50
2022-10-25T23:56:09.590Z,19.90
2022-10-25T23:58:40.620Z,15.53
